Warning: Javascript must be enabled to use all the features on this page!


Page Loading - Please Wait...

Click to hideNews Bulletins

Peak Streamflow for the Nation

USGS 05480500 Des Moines River at Fort Dodge, IA

Webster County, Iowa
Hydrologic Unit Code 07100004
Latitude  42°30'30", Longitude  94°12'12" NAD27
Drainage area 4,190  square miles
Gage datum 969.38 feet above NGVD29
Output formats
Table
Graph
Tab-separated file
peakfq (watstore) format
Reselect output format
Water
Year
Date Gage
Height
(feet)
Stream-
flow
(cfs)
1905 1905-05-17 7.00 6,460
1906 1906-03-26 7.90 12,000
1914 1914-06-20 7.406 6,530
1915 1915-05-30 14.00 18,500
1916 1916-03-29 10.20 11,900
1917 1917-03-22 12.90 17,100
1918 1918-06-04 10.10 11,400
1919 1919-06-24 9.20 10,200
1920 1920-07-09 11.38 14,200
1921 1921-05-28 7.20 6,600
1922 1922-04-13 7.50 7,500
1923 1923-03-25 6.38 4,160
1924 1924-04-05 4.52 3,320
1925 1925-03-09 7.601 4,2002
1926 1926-09-21 5.03 3,990
1927 1927-04-22 8.45 8,870
1947 1947-06-23 19.626 34,000
1948 1948-02-27 9.89 13,000
1949 1949-03-06 8.42 9,250
1950 1950-03-08 6.70 6,850
1951 1951-04-08 12.13 22,300
1952 1952-04-02 8.75 13,100
1953 1953-06-13 7.14 8,850
1954 1954-06-21 19.28 35,400
1955 1955-04-26 6.30 6,840
1956 1956-03-28 4.97 3,400
1957 1957-05-30 5.42 4,400
1958 1958-07-14 7.97 7,450
1959 1959-05-22 9.17 9,680
1960 1960-03-29 11.28 16,200
1961 1961-03-28 12.83 20,500
1962 1962-04-01 13.34 21,800
1963 1963-07-09 7.00 7,000
1964 1964-07-31 8.67 10,700
1965 1965-04-08 17.79 35,600
1966 1966-04-01 6.33 5,490
1967 1967-06-16 9.47 12,600
1968 1968-06-29 5.16 2,640
1969 1969-04-15 12.83 23,000
1970 1970-05-14 8.77 11,400
1971 1971-03-15 9.242 12,700
1972 1972-08-06 7.46 8,270
1973 1973-03-14 9.33 13,000
1974 1974-06-23 7.50 8,490
1975 1975-04-29 9.05 12,200
1976 1976-03-15 4.97 2,640
1977 1977-05-04 5.41 3,520
1978 1978-07-08 7.97 9,160
1979 1979-08-25 12.69 22,200
1980 1980-06-15 9.32 12,900
1981 1981-06-24 9.32 13,200
1982 1982-07-10 8.032 9,920
1983 1983-07-03 11.76 19,600
1984 1984-06-19 14.94 27,700
1985 1985-04-27 7.26 8,030
1986 1986-03-20 9.48 13,600
1987 1986-10-13 8.74 11,700
1988 1988-05-09 5.65 4,130
1989 1989-05-25 5.20 3,130
1990 1990-06-19 9.83 14,300
1991 1991-05-18 13.24 23,600
1992 1992-03-10 8.61 11,100
1993 1993-04-01 15.81 31,200
1994 1994-06-25 11.512 18,800
1995 1995-05-30 8.232 11,200
1996 1996-06-21 8.10 9,820
1997 1997-03-13 8.362 10,900
1998 1998-06-26 8.37 10,900
1999 1999-04-23 9.70 14,000
2000 2000-07-12 7.38 8,700
2001 2001-05-04 12.53 23,400
2002 2002-05-12 5.66 4,440
2003 2003-06-27 9.12 13,100
2004 2004-05-24 10.05 15,000
2005 2005-06-26 12.61 23,700
2006 2006-04-07 8.19 11,100
2007 2007-08-22 14.51 29,400
2008 2008-06-08 15.73 34,400
2009 2009-02-11 11.401 6,1002
2010 2010-06-27 16.83 36,800
2011 2011-06-27 11.202 19,600
2012 2012-05-28 6.42 5,200
2013 2013-05-28 11.92 21,500
2014 2014-06-19 15.31 30,800
2015 2015-06-13 7.75 8,510
2016 2015-12-16 10.99 17,100
2017 2017-05-22 9.682 14,500
2018 2018-09-23 14.142 25,300
2019 2019-03-20 15.042 31,600
?
  Peak Gage-Height Qualification Codes.
?
  Peak Streamflow Qualification Codes.